• Join FlightAware (Why Join?)
  • Login
  • US Flag 
05:24AM EDT


 

Airport Tracker/Info


-or-


 

Live Flight TrackerFlight Track Log ✈ N45NS ✈ 09-Sep-2013 ✈ KBWI - KBJJ

Flight Track Log - Related Links

Times and Time Zones

All times are in EDT time to prevent confusion due to time zone crossing. See the N45NS flight status page for this flight to view local times or setup timezone preferences in your user account.

Time Position Orientation Groundspeed Altitude Reporting Facility
EDT Latitude Longitude Course Direction KTS MPH feet Rate Location/Type
01:13PM 39.1333 -76.6833 295° West 251 289 3,600  Level Potomac TRACON
01:14PM 39.1667 -76.7667 297° West 276 318 6,700 3,120 Climbing Potomac TRACON
01:15PM 39.2000 -76.8500 297° West 271 312 9,900 2,820 Climbing Potomac TRACON
01:16PM 39.2167 -76.9500 282° West 285 328 12,400 2,220 Climbing Potomac TRACON
01:18PM 39.4959 -77.5816 295° West  Level Estimated
01:18PM 39.2767 -77.1333 293° West 311 358 16,600  Level Washington Center
01:19PM 39.3169 -77.2333 298° West 311 358 18,600 2,040 Climbing Washington Center
01:20PM 39.3550 -77.3389 295° West 311 358 20,700 1,980 Climbing Washington Center
01:21PM 39.3972 -77.4419 298° West 316 364 22,700 1,740 Climbing Washington Center
01:22PM 39.4394 -77.5506 297° West 327 376 24,300 1,440 Climbing Washington Center
01:23PM 39.4792 -77.6644 294° West 338 389 25,600 1,260 Climbing Washington Center
01:25PM 39.5431 -77.8750 292° West 347 399 28,000 840 Climbing Cleveland Center
01:26PM 39.5903 -78.0267 292° West 375 432 28,000  Level Cleveland Center
01:27PM 39.6286 -78.1600 291° West 397 457 28,000  Level Cleveland Center
01:28PM 39.6689 -78.2933 291° West 403 464 28,000  Level Cleveland Center
01:29PM 39.6981 -78.4003 290° West 403 464 28,000  Level Cleveland Center
01:30PM 39.7469 -78.5581 292° West 403 464 28,000  Level Cleveland Center
01:31PM 39.7867 -78.6839 292° West 398 458 28,000  Level Cleveland Center
01:32PM 39.8325 -78.8122 295° West 393 452 28,000  Level Cleveland Center
01:33PM 39.8781 -78.9411 295° West 387 445 28,000  Level Cleveland Center
01:34PM 39.9258 -79.0644 297° West 387 445 28,000  Level Cleveland Center
01:35PM 39.9689 -79.1881 294° West 387 445 28,000  Level Cleveland Center
01:36PM 40.0142 -79.3117 296° West 382 440 28,000 -600 Level Cleveland Center
01:37PM 40.0572 -79.4411 294° West 382 440 26,900 -1,140 Descending Cleveland Center
01:38PM 40.1044 -79.5733 295° West 387 445 25,800 -1,200 Descending Cleveland Center
01:39PM 40.1492 -79.7058 294° West 397 457 24,600 -900 Descending Cleveland Center
01:40PM 40.1961 -79.8383 295° West 402 463 24,100 -300 Descending Cleveland Center
01:41PM 40.2406 -79.9656 295° West 396 456 24,000 -60 Descending Cleveland Center
01:42PM 40.2831 -80.0933 294° West 390 449 24,000  Level Cleveland Center
01:43PM 40.3231 -80.2208 292° West 390 449 24,000  Level Cleveland Center
01:44PM 40.3672 -80.3489 294° West 390 449 24,000  Level Cleveland Center
01:45PM 40.4089 -80.4603 296° West 384 442 24,000  Level Cleveland Center
01:46PM 40.4508 -80.5886 293° West 384 442 24,000 -900 Level Cleveland Center
01:47PM 40.4964 -80.7222 294° West 389 448 22,300 -1,980 Descending Cleveland Center
01:48PM 40.5381 -80.8508 293° West 389 448 20,100 -2,160 Descending Cleveland Center
01:49PM 40.5772 -80.9711 293° West 383 441 18,000 -2,280 Descending Cleveland Center
01:50PM 40.6183 -81.1028 292° West 369 425 15,600 -2,340 Descending Cleveland Center
01:51PM 40.6553 -81.2181 293° West 357 411 13,400 -2,100 Descending Cleveland Center
01:52PM 40.6942 -81.3306 295° West 351 404 11,400 -2,040 Descending Cleveland Center
01:53PM 40.7269 -81.4325 293° West 318 366 9,400 -1,800 Descending Cleveland Center
01:54PM 40.7514 -81.5094 293° West 279 321 7,800 -1,800 Descending Cleveland Center
01:55PM 40.7797 -81.5950 294° West 254 292 5,800 -2,040 Descending Cleveland Center
01:56PM 40.8081 -81.6778 294° West 254 292 3,800 -1,500 Descending Cleveland Center
01:57PM 40.8386 -81.7522 298° West 245 282 2,900 -780 Descending Cleveland Center
01:58PM 40.8714 -81.8106 307° West 216 249 2,300 -420 Descending Cleveland Center
01:59PM 40.9039 -81.8825 301° West 209 241 2,100 -240 Descending Cleveland Center
02:00PM 40.8748 -81.8883 303° West  Level Estimated
02:07PM 40.8748 -81.8883 303° West  Level Estimated
02:08PM 40.8748 -81.8883 303° West  Level Estimated
02:09PM 40.8748 -81.8883 303° West  Level Estimated